createdAt,value
2023-12-18T00:00:05.303Z,29.37
2023-12-18T00:01:08.872Z,28.05
2023-12-18T00:02:11.815Z,28.45
2023-12-18T00:03:14.546Z,26.25
2023-12-18T00:04:17.460Z,27.87
2023-12-18T00:05:20.394Z,26.73
2023-12-18T00:06:23.584Z,26.08
2023-12-18T00:07:27.995Z,26.42
2023-12-18T00:08:30.898Z,26.17
2023-12-18T00:09:33.616Z,26.80
2023-12-18T00:10:36.592Z,26.80
2023-12-18T00:11:39.484Z,25.73
2023-12-18T00:12:42.522Z,24.33
2023-12-18T00:13:45.372Z,24.17
2023-12-18T00:14:48.315Z,26.30
2023-12-18T00:15:51.162Z,25.98
2023-12-18T00:16:54.308Z,25.60
2023-12-18T00:17:57.020Z,25.17
2023-12-18T00:19:00.921Z,27.92
2023-12-18T00:20:05.617Z,27.17
2023-12-18T00:21:08.771Z,26.23
2023-12-18T00:22:11.712Z,25.55
2023-12-18T00:23:14.636Z,25.70
2023-12-18T00:24:17.671Z,28.65
2023-12-18T00:25:20.617Z,28.40
2023-12-18T00:26:24.449Z,29.23
2023-12-18T00:27:27.936Z,27.90
2023-12-18T00:28:30.625Z,27.42
2023-12-18T00:29:33.561Z,28.50
2023-12-18T00:30:36.528Z,29.57
2023-12-18T00:31:39.535Z,29.42
2023-12-18T00:32:42.613Z,27.67
2023-12-18T00:33:45.582Z,29.77
2023-12-18T00:34:48.637Z,29.63
2023-12-18T00:35:51.474Z,30.52
2023-12-18T00:36:54.347Z,30.77
2023-12-18T00:37:57.688Z,28.33
2023-12-18T00:39:00.471Z,28.48
2023-12-18T00:40:03.807Z,29.02
2023-12-18T00:41:06.626Z,26.97
2023-12-18T00:42:09.628Z,27.42
2023-12-18T00:43:13.420Z,27.95
2023-12-18T00:44:16.345Z,28.75
2023-12-18T00:45:19.376Z,30.88
2023-12-18T00:46:22.227Z,29.42
2023-12-18T00:47:25.118Z,29.45
2023-12-18T00:48:28.413Z,30.75
2023-12-18T00:49:33.954Z,30.20
2023-12-18T00:50:36.943Z,29.35
2023-12-18T00:51:40.026Z,28.70
2023-12-18T00:52:42.738Z,28.65
2023-12-18T00:53:45.910Z,26.70
2023-12-18T00:54:48.563Z,26.65
2023-12-18T00:55:51.480Z,27.42
2023-12-18T00:56:54.471Z,27.10
2023-12-18T00:57:57.420Z,24.98
2023-12-18T00:59:00.643Z,26.67
2023-12-18T01:00:03.780Z,27.95
2023-12-18T01:01:06.928Z,26.92
2023-12-18T01:02:09.732Z,28.03
2023-12-18T01:03:12.661Z,27.62
2023-12-18T01:04:16.211Z,26.67
2023-12-18T01:05:19.321Z,26.52
2023-12-18T01:06:22.356Z,26.60
2023-12-18T01:07:25.202Z,26.52
2023-12-18T01:08:27.797Z,25.85
2023-12-18T01:09:30.937Z,28.10
2023-12-18T01:10:33.820Z,27.55
2023-12-18T01:11:37.216Z,27.17
2023-12-18T01:12:42.921Z,27.57
2023-12-18T01:13:45.753Z,26.87
2023-12-18T01:14:48.914Z,27.02
2023-12-18T01:15:51.845Z,26.95
2023-12-18T01:16:55.861Z,28.60
2023-12-18T01:17:58.738Z,28.05
2023-12-18T01:19:01.933Z,27.77
2023-12-18T01:20:07.414Z,27.85
2023-12-18T01:21:10.411Z,28.12
2023-12-18T01:22:13.281Z,29.73
2023-12-18T01:23:16.286Z,29.27
2023-12-18T01:24:19.471Z,31.10
2023-12-18T01:25:22.450Z,28.50
2023-12-18T01:26:25.296Z,27.80
2023-12-18T01:27:27.928Z,29.50
2023-12-18T01:28:30.788Z,29.75
2023-12-18T01:29:33.674Z,28.87
2023-12-18T01:30:36.888Z,27.80
2023-12-18T01:31:40.154Z,28.65
2023-12-18T01:32:44.253Z,29.65
2023-12-18T01:33:47.298Z,29.73
2023-12-18T01:34:50.249Z,29.52
2023-12-18T01:35:53.332Z,29.87
2023-12-18T01:36:56.239Z,28.80
2023-12-18T01:37:59.068Z,30.67
2023-12-18T01:39:02.160Z,29.10
2023-12-18T01:40:05.389Z,27.80
2023-12-18T01:41:09.026Z,27.48
2023-12-18T01:42:12.754Z,28.17
2023-12-18T01:43:26.228Z,30.05
2023-12-18T01:44:29.068Z,28.77
2023-12-18T01:45:31.940Z,27.85
2023-12-18T01:46:36.748Z,27.37
2023-12-18T01:47:41.077Z,28.10
2023-12-18T01:48:44.781Z,28.30
2023-12-18T01:49:47.695Z,29.48
2023-12-18T01:50:50.412Z,28.50
2023-12-18T01:51:53.983Z,29.17
2023-12-18T01:52:56.902Z,28.50
2023-12-18T01:54:00.427Z,27.90
2023-12-18T01:55:13.669Z,29.40
2023-12-18T01:56:19.475Z,29.30
2023-12-18T01:57:24.610Z,27.55
2023-12-18T01:58:28.345Z,29.00
2023-12-18T01:59:38.003Z,29.17
2023-12-18T02:00:44.045Z,29.05
2023-12-18T02:01:49.733Z,27.37
2023-12-18T02:02:53.301Z,30.27
2023-12-18T02:03:59.274Z,28.23
2023-12-18T02:05:05.358Z,29.65
2023-12-18T02:06:08.269Z,28.23
2023-12-18T02:07:12.077Z,28.77
2023-12-18T02:08:15.539Z,29.95
2023-12-18T02:09:18.933Z,27.77
2023-12-18T02:10:25.551Z,28.30
2023-12-18T02:11:31.321Z,29.08
2023-12-18T02:12:34.401Z,26.92
2023-12-18T02:13:38.934Z,28.02
2023-12-18T02:14:42.268Z,26.65
2023-12-18T02:15:49.998Z,27.73
2023-12-18T02:16:52.612Z,27.37
2023-12-18T02:17:57.527Z,28.08
2023-12-18T02:19:00.347Z,26.75
2023-12-18T02:20:08.175Z,27.37
2023-12-18T02:21:11.131Z,27.58
2023-12-18T02:22:13.941Z,26.83
2023-12-18T02:23:16.843Z,27.33
2023-12-18T02:24:20.138Z,26.05
2023-12-18T02:25:23.209Z,25.40
2023-12-18T02:26:26.003Z,25.40
2023-12-18T02:27:28.664Z,25.20
2023-12-18T02:28:32.207Z,25.42
2023-12-18T02:29:35.070Z,26.08
2023-12-18T02:30:38.369Z,25.02
2023-12-18T02:31:41.562Z,24.80
2023-12-18T02:32:45.279Z,24.40
2023-12-18T02:33:51.225Z,24.10
2023-12-18T02:34:54.588Z,24.08
2023-12-18T02:35:58.762Z,24.40
2023-12-18T02:37:01.342Z,23.77
2023-12-18T02:38:04.415Z,23.60
2023-12-18T02:39:07.553Z,23.50
2023-12-18T02:40:10.949Z,24.60
2023-12-18T02:41:13.976Z,23.90
2023-12-18T02:42:16.885Z,25.12
2023-12-18T02:43:19.765Z,22.98
2023-12-18T02:44:22.619Z,23.87
2023-12-18T02:45:25.675Z,24.75
2023-12-18T02:46:28.596Z,25.15
2023-12-18T02:47:31.305Z,25.42
2023-12-18T02:48:34.475Z,24.67
2023-12-18T02:49:37.267Z,25.80
2023-12-18T02:50:40.037Z,24.17
2023-12-18T02:51:43.315Z,23.90
2023-12-18T02:52:46.040Z,24.23
2023-12-18T02:53:48.910Z,24.35
2023-12-18T02:54:51.778Z,25.00
2023-12-18T02:55:54.717Z,24.25
2023-12-18T02:56:57.888Z,24.37
2023-12-18T02:58:01.096Z,24.52
2023-12-18T02:59:03.673Z,23.40
2023-12-18T03:00:07.236Z,25.88
2023-12-18T03:01:10.040Z,25.10
2023-12-18T03:02:13.118Z,24.15
2023-12-18T03:03:16.070Z,25.30
2023-12-18T03:04:20.318Z,24.45
2023-12-18T03:05:23.464Z,26.42
2023-12-18T03:06:26.436Z,27.08
2023-12-18T03:07:29.632Z,23.95
2023-12-18T03:08:32.361Z,23.52
2023-12-18T03:09:35.429Z,24.00
2023-12-18T03:10:38.393Z,22.73
2023-12-18T03:11:44.993Z,23.27
2023-12-18T03:12:48.148Z,23.92
2023-12-18T03:13:51.023Z,23.70
2023-12-18T03:14:53.612Z,24.98
2023-12-18T03:15:57.930Z,26.85
2023-12-18T03:17:00.829Z,26.52
2023-12-18T03:18:04.335Z,27.48
2023-12-18T03:19:07.736Z,27.27
2023-12-18T03:20:11.177Z,26.60
2023-12-18T03:21:14.035Z,26.45
2023-12-18T03:22:19.197Z,25.73
2023-12-18T03:23:22.443Z,24.85
2023-12-18T03:24:26.263Z,25.58
2023-12-18T03:25:29.175Z,26.87
2023-12-18T03:26:32.035Z,25.58
2023-12-18T03:27:35.198Z,27.87
2023-12-18T03:28:38.482Z,27.00
2023-12-18T03:29:42.643Z,28.05
2023-12-18T03:30:46.166Z,26.53
2023-12-18T03:31:48.838Z,27.02
2023-12-18T03:32:54.320Z,27.23
2023-12-18T03:33:57.471Z,27.52
2023-12-18T03:35:04.817Z,26.40
2023-12-18T03:36:11.529Z,24.95
2023-12-18T03:37:17.491Z,24.05
2023-12-18T03:38:20.564Z,23.87
2023-12-18T03:40:43.108Z,24.90
2023-12-18T03:41:46.262Z,25.27
2023-12-18T03:42:48.925Z,24.45
2023-12-18T03:43:52.170Z,26.10
2023-12-18T03:44:55.203Z,25.55
2023-12-18T03:45:57.772Z,25.77
2023-12-18T03:47:00.587Z,24.30
2023-12-18T03:48:03.493Z,23.08
2023-12-18T03:49:07.132Z,24.45
2023-12-18T03:50:11.581Z,25.55
2023-12-18T03:51:14.721Z,25.58
2023-12-18T03:52:17.416Z,25.17
2023-12-18T03:53:20.971Z,25.17
2023-12-18T03:54:23.845Z,25.10
2023-12-18T03:55:28.739Z,25.73
2023-12-18T03:56:34.017Z,27.33
2023-12-18T03:57:37.031Z,26.45
2023-12-18T03:58:39.667Z,26.52
2023-12-18T03:59:42.509Z,27.30
2023-12-18T04:00:45.735Z,28.00
2023-12-18T04:01:48.659Z,27.25
2023-12-18T04:02:51.731Z,26.40
2023-12-18T04:03:54.674Z,26.77
2023-12-18T04:04:57.393Z,25.02
2023-12-18T04:06:00.315Z,24.95
2023-12-18T04:07:03.315Z,24.60
2023-12-18T04:08:06.464Z,24.50
2023-12-18T04:09:10.024Z,24.25
2023-12-18T04:10:13.100Z,24.35
2023-12-18T04:11:16.840Z,24.15
2023-12-18T04:12:19.880Z,23.92
2023-12-18T04:13:22.795Z,22.50
2023-12-18T04:14:25.377Z,23.98
2023-12-18T04:15:28.233Z,23.10
2023-12-18T04:16:31.110Z,22.80
2023-12-18T04:17:34.409Z,23.52
2023-12-18T04:18:37.812Z,22.25
2023-12-18T04:19:40.843Z,21.92
2023-12-18T04:20:44.197Z,22.90
2023-12-18T04:21:47.189Z,22.52
2023-12-18T04:22:50.863Z,22.92
2023-12-18T04:23:53.494Z,23.13
2023-12-18T04:24:56.140Z,22.23
2023-12-18T04:25:59.073Z,20.65
2023-12-18T04:27:02.061Z,22.15
2023-12-18T04:28:05.545Z,22.20
2023-12-18T04:29:08.191Z,22.33
2023-12-18T04:30:11.906Z,22.45
2023-12-18T04:31:19.258Z,21.52
2023-12-18T04:32:22.289Z,21.10
2023-12-18T04:33:25.667Z,21.62
2023-12-18T04:34:28.817Z,20.93
2023-12-18T04:35:31.801Z,22.30
2023-12-18T04:36:41.052Z,22.10
2023-12-18T04:37:44.355Z,22.20
2023-12-18T04:38:48.373Z,22.25
2023-12-18T04:39:51.304Z,21.85
2023-12-18T04:40:54.176Z,21.25
2023-12-18T04:41:56.953Z,21.33
2023-12-18T04:42:59.768Z,21.17
2023-12-18T04:44:02.943Z,22.17
2023-12-18T04:45:06.309Z,21.03
2023-12-18T04:46:09.156Z,21.40
2023-12-18T04:47:12.014Z,21.87
2023-12-18T04:48:16.087Z,21.80
2023-12-18T04:49:20.427Z,22.67
2023-12-18T04:50:24.803Z,20.17
2023-12-18T04:51:27.425Z,22.10
2023-12-18T04:52:30.319Z,21.67
2023-12-18T04:53:34.792Z,21.62
2023-12-18T04:54:37.964Z,23.45
2023-12-18T04:55:41.042Z,21.97
2023-12-18T04:56:43.971Z,21.00
2023-12-18T04:57:46.636Z,22.52
2023-12-18T04:58:49.720Z,21.92
2023-12-18T04:59:52.884Z,22.75
2023-12-18T05:00:55.873Z,21.42
2023-12-18T05:01:58.788Z,21.37
2023-12-18T05:03:01.689Z,21.50
2023-12-18T05:04:05.173Z,21.67
2023-12-18T05:05:08.668Z,21.42
2023-12-18T05:06:20.890Z,21.10
2023-12-18T05:07:23.881Z,22.25
2023-12-18T05:08:26.916Z,22.20
2023-12-18T05:09:29.490Z,21.73
2023-12-18T05:10:32.722Z,21.50
2023-12-18T05:11:36.133Z,21.25
2023-12-18T05:12:39.056Z,21.55
2023-12-18T05:13:42.009Z,20.83
2023-12-18T05:14:44.942Z,20.40
2023-12-18T05:15:48.839Z,21.37
2023-12-18T05:16:51.689Z,21.40
2023-12-18T05:17:54.556Z,21.23
2023-12-18T05:18:58.317Z,22.42
2023-12-18T05:20:04.036Z,22.30
2023-12-18T05:21:12.948Z,22.00
2023-12-18T05:22:15.651Z,20.92
2023-12-18T05:23:18.277Z,20.15
2023-12-18T05:24:21.234Z,20.85
2023-12-18T05:25:24.209Z,21.65
2023-12-18T05:26:27.146Z,20.23
2023-12-18T05:27:30.129Z,21.87
2023-12-18T05:28:41.497Z,21.23
2023-12-18T05:29:44.858Z,21.08
2023-12-18T05:30:47.747Z,21.23
2023-12-18T05:31:51.002Z,20.88
2023-12-18T05:32:53.808Z,20.67
2023-12-18T05:33:56.744Z,21.42
2023-12-18T05:34:59.754Z,21.67
2023-12-18T05:36:02.749Z,20.67
2023-12-18T05:37:06.004Z,21.37
2023-12-18T05:38:08.997Z,22.27
2023-12-18T05:39:12.114Z,21.70
2023-12-18T05:40:14.834Z,21.62
2023-12-18T05:41:17.763Z,21.77
2023-12-18T05:42:21.114Z,22.62
2023-12-18T05:43:26.254Z,22.15
2023-12-18T05:44:28.882Z,21.37
2023-12-18T05:45:33.148Z,22.75
2023-12-18T05:46:36.103Z,21.90
2023-12-18T05:47:39.251Z,22.23
2023-12-18T05:48:42.374Z,21.90
2023-12-18T05:49:45.416Z,22.50
2023-12-18T05:50:48.391Z,22.35
2023-12-18T05:51:52.016Z,22.40
2023-12-18T05:52:55.211Z,21.12
2023-12-18T05:53:57.917Z,21.05
2023-12-18T05:55:00.827Z,22.13
2023-12-18T05:56:04.008Z,21.95
2023-12-18T05:57:07.490Z,22.30
2023-12-18T05:58:10.673Z,21.40
2023-12-18T05:59:13.594Z,20.43
2023-12-18T06:00:17.819Z,21.77
2023-12-18T06:01:21.076Z,21.77
2023-12-18T06:02:24.001Z,22.98
2023-12-18T06:03:28.929Z,21.45
2023-12-18T06:04:34.927Z,22.95
2023-12-18T06:05:39.044Z,22.13
2023-12-18T06:06:42.321Z,23.58
2023-12-18T06:07:45.152Z,25.70
2023-12-18T06:08:47.820Z,26.08
2023-12-18T06:09:50.801Z,27.53
2023-12-18T06:10:53.726Z,26.65
2023-12-18T06:11:56.608Z,29.10
2023-12-18T06:12:59.521Z,30.30
2023-12-18T06:14:02.384Z,30.20
2023-12-18T06:15:06.870Z,31.65
2023-12-18T06:16:09.719Z,28.45
2023-12-18T06:17:12.992Z,27.58
2023-12-18T06:18:15.914Z,26.77
2023-12-18T06:19:19.025Z,28.65
2023-12-18T06:21:44.045Z,28.10
2023-12-18T06:22:49.679Z,30.12
2023-12-18T06:24:20.884Z,31.23
2023-12-18T06:25:28.405Z,29.05
2023-12-18T06:26:31.216Z,27.13
2023-12-18T06:27:34.792Z,24.65
2023-12-18T06:28:39.932Z,24.10
2023-12-18T06:29:45.055Z,23.45
2023-12-18T06:30:48.326Z,24.17
2023-12-18T06:31:57.026Z,22.00
2023-12-18T06:33:01.245Z,22.00
2023-12-18T06:34:05.231Z,23.15
2023-12-18T06:35:09.339Z,24.73
2023-12-18T06:36:17.829Z,24.23
2023-12-18T06:37:38.286Z,24.17
2023-12-18T06:38:41.166Z,22.65
2023-12-18T06:39:44.191Z,22.45
2023-12-18T06:40:47.080Z,23.40
2023-12-18T06:41:50.105Z,22.48
2023-12-18T06:42:53.076Z,21.80
2023-12-18T06:43:56.251Z,22.08
2023-12-18T06:44:59.427Z,22.25
2023-12-18T06:46:02.507Z,22.98
2023-12-18T06:47:05.124Z,23.98
2023-12-18T06:48:08.243Z,23.50
2023-12-18T06:49:11.363Z,22.15
2023-12-18T06:50:14.697Z,23.20
2023-12-18T06:51:17.681Z,22.45
2023-12-18T06:52:20.631Z,23.42
2023-12-18T06:53:23.208Z,20.37
2023-12-18T06:54:28.282Z,21.48
2023-12-18T06:55:32.773Z,20.15
2023-12-18T06:56:36.750Z,21.37
2023-12-18T06:57:39.803Z,22.08
2023-12-18T06:58:42.780Z,21.17
2023-12-18T06:59:46.211Z,21.52
2023-12-18T07:00:49.724Z,21.48
2023-12-18T07:01:52.711Z,20.00
2023-12-18T07:02:56.076Z,20.23
2023-12-18T07:03:58.909Z,21.43
2023-12-18T07:05:01.829Z,20.80
2023-12-18T07:06:07.017Z,21.55
2023-12-18T07:07:09.923Z,21.50
2023-12-18T07:08:12.818Z,20.45
2023-12-18T07:09:15.783Z,22.30
2023-12-18T07:10:18.864Z,23.20
2023-12-18T07:11:22.087Z,21.77
2023-12-18T07:12:25.344Z,21.37
2023-12-18T07:13:28.312Z,20.85
2023-12-18T07:14:30.965Z,21.50
2023-12-18T07:15:33.899Z,21.33
2023-12-18T07:16:36.910Z,20.98
2023-12-18T07:17:41.530Z,21.42
2023-12-18T07:18:46.110Z,21.83
2023-12-18T07:19:49.151Z,22.20
2023-12-18T07:20:51.855Z,22.40
2023-12-18T07:21:56.062Z,71.32
2023-12-18T07:22:59.133Z,96.87
2023-12-18T07:24:05.678Z,107.63
2023-12-18T07:25:11.554Z,95.90
2023-12-18T07:26:15.904Z,78.47
2023-12-18T07:27:19.093Z,60.92
2023-12-18T07:28:21.948Z,51.17
2023-12-18T07:29:24.854Z,43.33
2023-12-18T07:30:27.635Z,38.72
2023-12-18T07:31:30.783Z,34.42
2023-12-18T07:32:36.622Z,32.60
2023-12-18T07:33:40.621Z,31.00
2023-12-18T07:34:44.055Z,33.03
2023-12-18T07:35:47.675Z,33.53
2023-12-18T07:36:50.857Z,30.62
2023-12-18T07:37:54.142Z,30.52
2023-12-18T07:38:57.116Z,28.40
2023-12-18T07:40:00.849Z,27.77
2023-12-18T07:41:26.190Z,25.83
2023-12-18T07:42:29.061Z,25.12
2023-12-18T07:43:32.104Z,23.23
2023-12-18T07:44:34.683Z,23.98
2023-12-18T07:45:37.568Z,22.48
2023-12-18T07:46:40.506Z,23.00
2023-12-18T07:47:43.540Z,24.42
2023-12-18T07:48:50.457Z,25.40
2023-12-18T07:49:53.633Z,24.87
2023-12-18T07:50:57.278Z,25.37
2023-12-18T07:52:00.135Z,25.70
2023-12-18T07:53:03.944Z,24.60
2023-12-18T07:54:06.821Z,24.15
2023-12-18T07:55:10.289Z,24.50
2023-12-18T07:56:13.132Z,23.80
2023-12-18T07:57:16.198Z,23.83
2023-12-18T07:58:22.675Z,23.87
2023-12-18T07:59:25.865Z,23.38
2023-12-18T08:00:28.734Z,24.60
2023-12-18T08:01:32.304Z,24.27
2023-12-18T08:02:34.951Z,23.45
2023-12-18T08:03:38.001Z,23.08
2023-12-18T08:04:41.192Z,23.95
2023-12-18T08:05:44.002Z,23.85
2023-12-18T08:06:48.747Z,24.17
2023-12-18T08:07:51.694Z,23.17
2023-12-18T08:08:55.586Z,24.15
2023-12-18T08:09:58.420Z,22.05
2023-12-18T08:11:01.681Z,22.83
2023-12-18T08:12:05.405Z,22.13
2023-12-18T08:13:07.990Z,22.70
2023-12-18T08:14:10.805Z,23.75
2023-12-18T08:15:13.841Z,21.55
2023-12-18T08:16:16.747Z,22.62
2023-12-18T08:17:19.693Z,21.20
2023-12-18T08:18:22.504Z,21.80
2023-12-18T08:19:25.476Z,22.95
2023-12-18T08:20:28.484Z,21.15
2023-12-18T08:21:32.465Z,21.10
2023-12-18T08:22:36.120Z,21.75
2023-12-18T08:23:38.676Z,22.85
2023-12-18T08:24:42.902Z,22.20
2023-12-18T08:25:45.715Z,22.08
2023-12-18T08:26:51.184Z,22.60
2023-12-18T08:27:54.119Z,23.52
2023-12-18T08:28:57.779Z,23.80
2023-12-18T08:30:05.590Z,25.20
2023-12-18T08:31:08.488Z,25.27
2023-12-18T08:32:11.471Z,25.05
2023-12-18T08:33:17.465Z,25.48
2023-12-18T08:34:20.521Z,24.17
2023-12-18T08:35:23.440Z,22.85
2023-12-18T08:36:26.311Z,23.38
2023-12-18T08:37:29.578Z,23.83
2023-12-18T08:38:33.770Z,22.67
2023-12-18T08:39:36.686Z,22.87
2023-12-18T08:40:39.500Z,23.00
2023-12-18T08:41:44.620Z,23.02
2023-12-18T08:42:47.673Z,22.77
2023-12-18T08:43:58.585Z,22.35
2023-12-18T08:45:08.531Z,21.35
2023-12-18T08:46:11.341Z,21.83
2023-12-18T08:47:13.968Z,22.50
2023-12-18T08:48:17.268Z,22.77
2023-12-18T08:49:20.639Z,23.62
2023-12-18T08:50:23.570Z,23.53
2023-12-18T08:51:26.450Z,24.45
2023-12-18T08:52:29.370Z,22.30
2023-12-18T08:53:32.290Z,23.77
2023-12-18T08:54:35.513Z,23.27
2023-12-18T08:55:40.163Z,23.73
2023-12-18T08:56:42.768Z,22.98
2023-12-18T08:57:46.269Z,23.20
2023-12-18T08:58:53.104Z,23.98
2023-12-18T08:59:56.504Z,23.10
2023-12-18T09:00:59.579Z,22.83
2023-12-18T09:02:02.247Z,22.50
2023-12-18T09:03:08.216Z,22.80
2023-12-18T09:04:11.122Z,22.77
2023-12-18T09:05:16.341Z,22.55
2023-12-18T09:06:19.521Z,22.33
2023-12-18T09:07:22.164Z,22.05
2023-12-18T09:08:26.166Z,22.58
2023-12-18T09:09:28.896Z,22.37
2023-12-18T09:10:33.952Z,21.37
2023-12-18T09:11:37.107Z,22.37
2023-12-18T09:12:40.127Z,22.90
2023-12-18T09:13:44.781Z,23.08
2023-12-18T09:14:47.461Z,21.25
2023-12-18T09:15:50.405Z,22.37
2023-12-18T09:16:55.982Z,22.35
2023-12-18T09:18:00.462Z,22.42
2023-12-18T09:19:03.763Z,21.92
2023-12-18T09:20:11.557Z,21.02
2023-12-18T09:21:14.933Z,23.00
2023-12-18T09:22:17.804Z,20.97
2023-12-18T09:23:22.228Z,21.37
2023-12-18T09:24:26.977Z,21.50
2023-12-18T09:25:29.907Z,22.73
2023-12-18T09:26:32.790Z,22.70
2023-12-18T09:27:35.714Z,22.90
2023-12-18T09:28:39.574Z,21.65
2023-12-18T09:29:42.428Z,23.48
2023-12-18T09:30:45.880Z,21.58
2023-12-18T09:31:49.056Z,22.60
2023-12-18T09:32:53.436Z,22.20
2023-12-18T09:33:56.291Z,23.00
2023-12-18T09:34:59.108Z,21.37
2023-12-18T09:36:03.118Z,21.23
2023-12-18T09:37:06.039Z,22.20
2023-12-18T09:38:08.638Z,23.40
2023-12-18T09:39:11.596Z,21.62
2023-12-18T09:40:14.618Z,22.27
2023-12-18T09:41:27.600Z,21.73
2023-12-18T09:42:30.832Z,21.00
2023-12-18T09:43:33.561Z,20.60
2023-12-18T09:44:36.849Z,22.65
2023-12-18T09:45:41.583Z,22.60
2023-12-18T09:46:44.441Z,22.58
2023-12-18T09:47:47.691Z,22.52
2023-12-18T09:48:51.896Z,23.10
2023-12-18T09:49:55.577Z,23.38
2023-12-18T09:50:59.013Z,22.40
2023-12-18T09:52:07.315Z,23.40
2023-12-18T09:53:13.479Z,21.87
2023-12-18T09:54:17.417Z,20.83
2023-12-18T09:55:21.032Z,21.40
2023-12-18T09:56:25.346Z,21.25
2023-12-18T09:57:30.342Z,23.25
2023-12-18T09:58:33.316Z,25.42
2023-12-18T09:59:36.249Z,24.90
2023-12-18T10:00:39.434Z,24.08
2023-12-18T10:01:42.909Z,23.92
2023-12-18T10:02:45.981Z,23.27
2023-12-18T10:03:50.639Z,24.87
2023-12-18T10:04:53.576Z,24.17
2023-12-18T10:05:56.159Z,23.42
2023-12-18T10:06:59.121Z,21.90
2023-12-18T10:08:02.746Z,22.65
2023-12-18T10:09:15.477Z,23.27
2023-12-18T10:10:18.469Z,22.02
2023-12-18T10:11:27.341Z,22.40
2023-12-18T10:12:30.559Z,22.23
2023-12-18T10:13:35.939Z,21.17
2023-12-18T10:14:40.193Z,22.73
2023-12-18T10:15:43.947Z,21.93
2023-12-18T10:16:46.783Z,21.80
2023-12-18T10:17:49.940Z,22.85
2023-12-18T10:18:54.418Z,22.02
2023-12-18T10:19:57.511Z,22.48
2023-12-18T10:21:00.478Z,22.23
2023-12-18T10:22:05.549Z,22.70
2023-12-18T10:23:08.763Z,22.30
2023-12-18T10:24:11.818Z,22.27
2023-12-18T10:25:14.801Z,21.90
2023-12-18T10:26:17.590Z,20.50
2023-12-18T10:27:20.599Z,20.77
2023-12-18T10:28:23.861Z,23.08
2023-12-18T10:29:26.696Z,24.05
2023-12-18T10:30:30.921Z,23.23
2023-12-18T10:31:34.086Z,24.10
2023-12-18T10:32:38.274Z,28.62
2023-12-18T10:33:43.690Z,31.15
2023-12-18T10:34:46.456Z,32.30
2023-12-18T10:35:49.708Z,32.13
2023-12-18T10:36:56.806Z,33.37
2023-12-18T10:38:01.936Z,36.53
2023-12-18T10:39:11.057Z,32.53
2023-12-18T10:40:15.910Z,29.25
2023-12-18T10:41:23.257Z,28.08
2023-12-18T10:42:33.128Z,28.70
2023-12-18T10:43:36.388Z,25.27
2023-12-18T10:44:41.400Z,26.20
2023-12-18T10:45:44.980Z,27.10
2023-12-18T10:46:50.396Z,25.88
2023-12-18T10:47:54.999Z,23.23
2023-12-18T10:49:00.425Z,24.00
2023-12-18T10:50:07.592Z,24.00
2023-12-18T10:51:11.429Z,24.33
2023-12-18T10:52:15.943Z,23.75
2023-12-18T10:53:19.266Z,24.55
2023-12-18T10:54:22.904Z,23.20
2023-12-18T10:55:28.682Z,23.85
2023-12-18T10:56:32.907Z,22.25
2023-12-18T10:57:38.304Z,24.50
2023-12-18T10:58:44.055Z,25.17
2023-12-18T10:59:50.832Z,24.85
2023-12-18T11:00:58.157Z,23.00
2023-12-18T11:02:02.076Z,23.62
2023-12-18T11:03:06.617Z,24.00
2023-12-18T11:04:10.488Z,24.08
2023-12-18T11:05:13.740Z,23.70
2023-12-18T11:06:19.822Z,24.98
2023-12-18T11:07:23.175Z,23.80
2023-12-18T11:08:26.247Z,23.98
2023-12-18T11:09:29.236Z,24.23
2023-12-18T11:10:32.368Z,23.23
2023-12-18T11:11:37.313Z,22.65
2023-12-18T11:12:42.467Z,25.60
2023-12-18T11:13:57.876Z,25.48
2023-12-18T11:15:12.256Z,26.92
2023-12-18T11:16:23.951Z,23.65
2023-12-18T11:17:48.653Z,23.10
2023-12-18T11:19:16.391Z,23.75
2023-12-18T11:20:43.330Z,23.65
2023-12-18T11:21:49.446Z,23.40
2023-12-18T11:22:57.940Z,23.87
2023-12-18T11:24:06.525Z,23.98
2023-12-18T11:25:10.975Z,22.55
2023-12-18T11:26:14.336Z,22.75
2023-12-18T11:27:18.829Z,23.15
2023-12-18T11:28:25.809Z,21.85
2023-12-18T11:29:37.603Z,22.65
2023-12-18T11:30:44.769Z,21.42
2023-12-18T11:31:48.249Z,21.52
2023-12-18T11:32:51.594Z,21.43
2023-12-18T11:34:06.374Z,21.98
2023-12-18T11:35:16.144Z,21.92
2023-12-18T11:36:19.124Z,21.83
2023-12-18T11:37:21.804Z,23.67
2023-12-18T11:38:27.595Z,31.08
2023-12-18T11:39:40.807Z,40.78
2023-12-18T11:40:49.935Z,39.03
2023-12-18T11:41:52.863Z,37.65
2023-12-18T11:42:55.756Z,34.25
2023-12-18T11:44:07.897Z,30.87
2023-12-18T11:45:12.222Z,28.15
2023-12-18T11:46:18.373Z,27.95
2023-12-18T11:47:22.415Z,26.67
2023-12-18T11:48:25.741Z,26.52
2023-12-18T11:49:28.772Z,24.73
2023-12-18T11:50:35.656Z,23.58
2023-12-18T11:51:43.850Z,23.25
2023-12-18T11:52:50.227Z,23.20
2023-12-18T11:53:59.973Z,23.15
2023-12-18T11:55:03.104Z,24.60
2023-12-18T11:56:11.520Z,26.80
2023-12-18T11:57:20.761Z,28.12
2023-12-18T11:58:27.908Z,29.05
2023-12-18T11:59:31.359Z,29.12
2023-12-18T12:00:36.708Z,27.33
2023-12-18T12:01:40.330Z,26.83
2023-12-18T12:02:43.355Z,27.80
2023-12-18T12:03:47.121Z,24.85
2023-12-18T12:04:54.769Z,24.98
2023-12-18T12:05:59.769Z,23.00
2023-12-18T12:07:02.942Z,21.90
2023-12-18T12:08:06.312Z,22.65
2023-12-18T12:09:10.165Z,24.50
2023-12-18T12:10:13.065Z,24.23
2023-12-18T12:11:15.977Z,23.98
2023-12-18T12:12:19.132Z,25.12
2023-12-18T12:13:24.300Z,23.52
2023-12-18T12:14:28.393Z,24.42
2023-12-18T12:15:32.001Z,23.75
2023-12-18T12:16:35.008Z,22.87
2023-12-18T12:17:38.458Z,24.60
2023-12-18T12:18:52.425Z,24.35
2023-12-18T12:19:55.624Z,24.80
2023-12-18T12:20:59.257Z,25.62
2023-12-18T12:22:02.333Z,26.25
2023-12-18T12:23:05.476Z,26.70
2023-12-18T12:24:09.492Z,26.08
2023-12-18T12:25:12.768Z,24.95
2023-12-18T12:26:18.614Z,24.48
2023-12-18T12:27:21.528Z,24.17
2023-12-18T12:28:24.977Z,26.70
2023-12-18T12:29:27.901Z,26.60
2023-12-18T12:30:30.990Z,28.55
2023-12-18T12:31:34.680Z,26.55
2023-12-18T12:32:38.113Z,24.60
2023-12-18T12:33:46.471Z,26.15
2023-12-18T12:34:49.840Z,26.30
2023-12-18T12:35:55.575Z,26.33
2023-12-18T12:37:03.416Z,27.08
2023-12-18T12:38:06.557Z,27.27
2023-12-18T12:39:09.465Z,26.23
2023-12-18T12:40:14.488Z,25.92
2023-12-18T12:41:17.467Z,25.12
2023-12-18T12:42:21.788Z,24.35
2023-12-18T12:43:25.086Z,28.00
2023-12-18T12:44:28.579Z,25.52
2023-12-18T12:45:31.333Z,25.20
2023-12-18T12:46:36.292Z,25.45
2023-12-18T12:47:40.896Z,25.67
2023-12-18T12:48:44.656Z,25.60
2023-12-18T12:49:50.191Z,26.55
2023-12-18T12:50:57.969Z,25.52
2023-12-18T12:52:00.898Z,25.17
2023-12-18T12:53:07.392Z,25.80
2023-12-18T12:54:10.031Z,26.45
2023-12-18T12:55:13.187Z,25.27
2023-12-18T12:56:15.911Z,26.48
2023-12-18T12:57:19.522Z,28.92
2023-12-18T12:58:22.795Z,29.08
2023-12-18T12:59:26.493Z,29.10
2023-12-18T13:00:30.295Z,27.70
2023-12-18T13:01:33.224Z,26.65
2023-12-18T13:02:36.729Z,26.30
2023-12-18T13:03:39.725Z,26.45
2023-12-18T13:04:42.905Z,25.92
2023-12-18T13:05:46.172Z,24.87
2023-12-18T13:06:54.010Z,24.27
2023-12-18T13:07:59.365Z,25.33
2023-12-18T13:09:02.465Z,24.27
2023-12-18T13:10:06.129Z,25.07
2023-12-18T13:11:09.618Z,23.75
2023-12-18T13:12:16.299Z,24.30
2023-12-18T13:13:18.993Z,24.58
2023-12-18T13:14:24.215Z,24.35
2023-12-18T13:15:27.248Z,23.23
2023-12-18T13:16:30.570Z,22.05
2023-12-18T13:17:33.649Z,23.42
2023-12-18T13:18:36.415Z,22.75
2023-12-18T13:19:39.667Z,24.48
2023-12-18T13:20:42.345Z,22.73
2023-12-18T13:21:45.479Z,23.05
2023-12-18T13:22:50.184Z,22.37
2023-12-18T13:23:55.086Z,22.23
2023-12-18T13:24:58.072Z,23.70
2023-12-18T13:26:00.976Z,22.90
2023-12-18T13:27:04.896Z,21.92
2023-12-18T13:28:07.840Z,23.45
2023-12-18T13:29:10.954Z,26.00
2023-12-18T13:30:14.274Z,27.83
2023-12-18T13:31:17.386Z,29.70
2023-12-18T13:32:22.043Z,27.92
2023-12-18T13:33:25.028Z,27.45
2023-12-18T13:34:27.727Z,28.05
2023-12-18T13:35:30.437Z,25.95
2023-12-18T13:36:33.465Z,26.52
2023-12-18T13:37:37.507Z,24.65
2023-12-18T13:38:40.717Z,24.00
2023-12-18T13:39:43.648Z,24.00
2023-12-18T13:40:46.586Z,23.80
2023-12-18T13:41:50.156Z,22.53
2023-12-18T13:42:53.545Z,23.05
2023-12-18T13:43:56.294Z,19.80
2023-12-18T13:44:59.476Z,21.65
2023-12-18T13:46:02.606Z,21.98
2023-12-18T13:47:07.411Z,20.88